createdAt,value
2018-06-21T11:25:00.806Z,1.92
2018-06-21T11:27:30.841Z,1.80
2018-06-21T11:30:00.230Z,2.02
2018-06-21T11:32:35.526Z,2.50
2018-06-21T11:35:04.970Z,2.08
2018-06-21T11:37:34.574Z,1.87
2018-06-21T11:40:05.178Z,1.80
2018-06-21T11:42:34.618Z,1.70
2018-06-21T11:45:04.106Z,1.37
2018-06-21T11:47:33.582Z,1.77
2018-06-21T11:50:04.022Z,2.00
2018-06-21T11:52:33.949Z,1.98
2018-06-21T11:55:03.138Z,1.40
2018-06-21T11:57:33.258Z,2.02
2018-06-21T12:00:04.686Z,1.98
2018-06-21T12:02:33.831Z,2.17
2018-06-21T12:05:02.681Z,1.75
2018-06-21T12:07:31.772Z,2.33
2018-06-21T12:10:08.548Z,1.80
2018-06-21T12:12:37.649Z,2.40
2018-06-21T12:15:19.880Z,1.90
2018-06-21T12:17:49.005Z,2.00
2018-06-21T12:20:18.175Z,1.90
2018-06-21T12:22:47.353Z,2.12
2018-06-21T12:25:16.497Z,2.30
2018-06-21T12:27:45.987Z,2.20
2018-06-21T12:30:16.514Z,2.20
2018-06-21T12:32:45.966Z,2.67
2018-06-21T12:35:16.014Z,2.10
2018-06-21T12:37:45.528Z,2.67
2018-06-21T12:40:21.175Z,1.98
2018-06-21T12:42:50.794Z,2.30
2018-06-21T12:45:20.261Z,1.80
2018-06-21T12:47:49.669Z,2.05
2018-06-21T12:50:24.515Z,2.40
2018-06-21T12:52:53.957Z,2.52
2018-06-21T12:55:23.482Z,2.90
2018-06-21T12:58:11.818Z,2.58
2018-06-21T13:00:53.262Z,2.40
2018-06-21T13:03:22.881Z,2.27
2018-06-21T13:05:52.278Z,3.30
2018-06-21T13:08:38.598Z,3.20
2018-06-21T13:12:30.122Z,2.98
2018-06-21T13:15:00.024Z,2.72
2018-06-21T13:17:30.554Z,2.20
2018-06-21T13:20:22.556Z,2.02
2018-06-21T13:25:45.625Z,1.87
2018-06-21T13:28:16.610Z,2.00
2018-06-21T13:30:59.369Z,2.10
2018-06-21T13:33:29.151Z,2.25
2018-06-21T13:35:58.529Z,1.95
2018-06-21T13:38:30.282Z,2.00
2018-06-21T13:41:11.359Z,2.22
2018-06-21T13:43:40.673Z,2.25
2018-06-21T13:46:10.095Z,1.95
2018-06-21T13:48:39.615Z,2.20
2018-06-21T13:51:11.014Z,2.40
2018-06-21T13:53:40.456Z,2.30
2018-06-21T13:56:09.819Z,2.30
2018-06-21T13:58:39.236Z,2.35
2018-06-21T14:01:20.322Z,2.62
2018-06-21T14:03:49.694Z,2.60
2018-06-21T14:06:19.167Z,2.40
2018-06-21T14:08:48.538Z,2.50
2018-06-21T14:11:18.966Z,2.37
2018-06-21T14:13:48.366Z,3.00
2018-06-21T14:16:17.863Z,3.30
2018-06-21T14:18:47.275Z,3.55
2018-06-21T14:21:35.777Z,4.08
2018-06-21T14:24:11.022Z,3.80
2018-06-21T14:26:40.537Z,4.22
2018-06-21T14:29:09.918Z,3.77
2018-06-21T14:32:32.414Z,4.03
2018-06-21T14:35:01.895Z,3.57
2018-06-21T14:37:31.310Z,3.72
2018-06-21T14:40:01.813Z,3.47
2018-06-21T14:42:31.240Z,4.17
2018-06-21T14:45:00.609Z,4.15
2018-06-21T14:47:30.009Z,3.80
2018-06-21T14:50:08.818Z,3.85
2018-06-21T14:52:38.254Z,4.05
2018-06-21T14:55:07.738Z,3.70
2018-06-21T14:57:37.153Z,3.45
2018-06-21T15:00:08.573Z,3.65
2018-06-21T15:02:38.011Z,4.15
2018-06-21T15:05:07.529Z,3.70
2018-06-21T15:07:36.873Z,3.30
2018-06-21T15:10:24.016Z,3.50
2018-06-21T15:12:53.426Z,3.08
2018-06-21T15:15:22.850Z,3.33
2018-06-21T15:17:52.233Z,2.87
2018-06-21T15:20:21.854Z,2.95
2018-06-21T15:22:51.249Z,2.80
2018-06-21T15:25:20.501Z,2.50
2018-06-21T15:27:49.943Z,2.52
2018-06-21T15:30:28.825Z,2.45
2018-06-21T15:32:58.217Z,2.08
2018-06-21T15:35:27.673Z,1.95
2018-06-21T15:37:57.010Z,2.00
2018-06-21T15:40:51.155Z,1.80
2018-06-21T15:43:20.694Z,1.55
2018-06-21T15:45:50.126Z,1.70
2018-06-21T15:48:19.549Z,1.80
2018-06-21T15:51:43.510Z,2.10
2018-06-21T15:54:19.393Z,1.57
2018-06-21T15:56:48.878Z,1.40
2018-06-21T15:59:18.394Z,1.60
2018-06-21T16:01:48.829Z,1.00
2018-06-21T16:04:18.292Z,1.35
2018-06-21T16:06:47.638Z,1.57
2018-06-21T16:09:17.061Z,1.22
2018-06-21T16:12:01.568Z,1.27
2018-06-21T16:14:30.949Z,1.07
2018-06-21T16:17:00.021Z,1.02
2018-06-21T16:19:29.221Z,0.98
2018-06-21T16:21:58.593Z,1.20
2018-06-21T16:24:28.079Z,1.47
2018-06-21T16:26:57.225Z,1.72
2018-06-21T16:29:26.542Z,1.00
2018-06-21T16:31:55.798Z,1.17
2018-06-21T16:34:25.262Z,1.10
2018-06-21T16:36:54.685Z,1.32
2018-06-21T16:39:24.109Z,1.37
2018-06-21T16:42:12.015Z,1.62
2018-06-21T16:44:41.518Z,1.10
2018-06-21T16:47:10.951Z,2.12
2018-06-21T16:49:54.518Z,1.00
2018-06-21T16:52:23.874Z,1.15
2018-06-21T16:54:53.262Z,0.95
2018-06-21T16:57:22.679Z,1.05
2018-06-21T16:59:52.111Z,0.98
2018-06-21T17:02:21.553Z,1.05
2018-06-21T17:04:50.928Z,1.67
2018-06-21T17:07:20.313Z,1.07
2018-06-21T17:09:50.856Z,1.35
2018-06-21T17:12:20.237Z,1.10
2018-06-21T17:14:49.585Z,1.20
2018-06-21T17:17:18.935Z,0.98
2018-06-21T17:20:02.062Z,1.17
2018-06-21T17:22:31.393Z,0.80
2018-06-21T17:25:00.785Z,1.20
2018-06-21T17:27:29.880Z,1.20
2018-06-21T17:30:05.481Z,1.23
2018-06-21T17:32:34.914Z,1.00
2018-06-21T17:35:04.249Z,1.00
2018-06-21T17:37:33.670Z,1.00
2018-06-21T17:40:12.182Z,0.97
2018-06-21T17:42:41.526Z,1.30
2018-06-21T17:45:10.901Z,1.13
2018-06-21T17:47:40.310Z,1.40
2018-06-21T17:50:18.982Z,1.00
2018-06-21T17:52:48.324Z,1.00
2018-06-21T17:55:17.666Z,1.10
2018-06-21T17:57:47.120Z,0.90
2018-06-21T18:04:12.673Z,1.00
2018-06-21T18:06:42.251Z,1.07
2018-06-21T18:09:11.774Z,1.23
2018-06-21T18:11:41.206Z,1.40
2018-06-21T18:14:10.575Z,1.10
2018-06-21T18:16:39.950Z,0.90
2018-06-21T18:19:09.377Z,0.90
2018-06-21T18:21:53.506Z,1.20
2018-06-21T18:24:22.948Z,0.90
2018-06-21T18:26:52.656Z,0.90
2018-06-21T18:29:22.174Z,0.80
2018-06-21T18:31:53.622Z,1.47
2018-06-21T18:34:22.764Z,0.77
2018-06-21T18:36:52.066Z,0.97
2018-06-21T18:39:21.478Z,0.87
2018-06-21T18:42:11.777Z,1.03
2018-06-21T18:44:41.202Z,0.90
2018-06-21T18:47:10.690Z,1.10
2018-06-21T18:50:12.010Z,1.10
2018-06-21T18:52:41.486Z,0.97
2018-06-21T18:55:10.776Z,1.13
2018-06-21T18:57:40.141Z,1.67
2018-06-21T19:00:33.301Z,1.13
2018-06-21T19:03:02.658Z,1.07
2018-06-21T19:05:32.042Z,1.40
2018-06-21T19:09:08.761Z,1.10
2018-06-21T19:11:49.213Z,0.77
2018-06-21T19:14:18.593Z,1.60
2018-06-21T19:16:47.974Z,1.00
2018-06-21T19:19:17.395Z,1.40
2018-06-21T19:22:10.438Z,1.17
2018-06-21T19:24:39.821Z,1.30
2018-06-21T19:27:08.940Z,1.07
2018-06-21T19:29:57.513Z,0.83
2018-06-21T19:32:26.564Z,1.20
2018-06-21T19:34:55.629Z,1.20
2018-06-21T19:37:24.773Z,1.00
2018-06-21T19:39:55.909Z,0.70
2018-06-21T19:42:25.185Z,1.03
2018-06-21T19:44:58.215Z,1.10
2018-06-21T19:48:07.193Z,0.90
2018-06-21T19:50:44.398Z,0.80
2018-06-21T19:53:13.807Z,1.20
2018-06-21T19:55:43.222Z,1.10
2018-06-21T19:58:12.573Z,1.10
2018-06-21T20:00:49.118Z,1.10
2018-06-21T20:03:18.517Z,0.77
2018-06-21T20:05:47.866Z,0.80
2018-06-21T20:08:17.214Z,1.13
2018-06-21T20:10:50.757Z,1.07
2018-06-21T20:13:20.150Z,1.30
2018-06-21T20:15:52.161Z,1.70
2018-06-21T20:18:22.372Z,1.10
2018-06-21T20:21:04.230Z,0.80
2018-06-21T20:23:33.301Z,1.17
2018-06-21T20:26:02.618Z,0.83
2018-06-21T20:28:32.038Z,1.33
2018-06-21T20:31:12.161Z,1.10
2018-06-21T20:33:42.758Z,0.90
2018-06-21T20:36:12.923Z,1.20
2018-06-21T20:38:42.443Z,0.90
2018-06-21T20:41:17.058Z,1.10
2018-06-21T20:43:46.410Z,0.90
2018-06-21T20:46:15.814Z,1.17
2018-06-21T20:48:45.432Z,0.70
2018-06-21T20:51:23.446Z,2.50
2018-06-21T20:53:52.841Z,1.27
2018-06-21T20:56:22.413Z,1.00
2018-06-21T20:58:51.742Z,1.23
2018-06-21T21:01:32.790Z,1.10
2018-06-21T21:04:02.205Z,1.33
2018-06-21T21:06:31.655Z,1.10
2018-06-21T21:09:01.014Z,1.07
2018-06-21T21:11:35.486Z,0.90
2018-06-21T21:14:04.882Z,0.93
2018-06-21T21:16:35.361Z,1.30
2018-06-21T21:19:04.752Z,0.90
2018-06-21T21:25:13.509Z,0.77
2018-06-21T21:27:42.853Z,1.60
2018-06-21T21:30:16.321Z,1.03
2018-06-21T21:32:45.441Z,0.83
2018-06-21T21:35:14.922Z,1.03
2018-06-21T21:37:44.233Z,1.40
2018-06-21T21:40:24.110Z,1.20
2018-06-21T21:42:53.473Z,0.73
2018-06-21T21:45:22.946Z,0.90
2018-06-21T21:47:52.369Z,1.00
2018-06-21T21:50:26.573Z,0.70
2018-06-21T21:52:55.692Z,0.90
2018-06-21T21:55:24.761Z,0.93
2018-06-21T21:57:53.864Z,0.63
2018-06-21T22:00:48.069Z,0.70
2018-06-21T22:03:17.225Z,1.10
2018-06-21T22:05:46.361Z,0.80
2018-06-21T22:08:15.446Z,0.77
2018-06-21T22:10:52.605Z,0.67
2018-06-21T22:13:21.665Z,1.20
2018-06-21T22:15:50.521Z,0.80
2018-06-21T22:18:19.665Z,1.20
2018-06-21T22:20:52.521Z,0.80
2018-06-21T22:23:21.682Z,0.80
2018-06-21T22:25:50.849Z,0.70
2018-06-21T22:28:19.954Z,0.70
2018-06-21T22:30:51.110Z,0.70
2018-06-21T22:33:20.269Z,1.03
2018-06-21T22:35:49.353Z,1.13
2018-06-21T22:38:18.421Z,0.70
2018-06-21T22:40:48.594Z,1.10
2018-06-21T22:43:17.911Z,1.07
2018-06-21T22:45:47.330Z,0.73
2018-06-21T22:48:16.365Z,0.70
2018-06-21T22:50:47.776Z,1.00
2018-06-21T22:53:17.174Z,0.87
2018-06-21T22:55:46.594Z,0.70
2018-06-21T22:58:16.066Z,0.90
2018-06-21T23:00:46.470Z,0.97
2018-06-21T23:03:15.914Z,1.17
2018-06-21T23:05:45.230Z,0.90
2018-06-21T23:08:14.646Z,0.90
2018-06-21T23:11:19.542Z,0.80
2018-06-21T23:13:48.954Z,1.00
2018-06-21T23:16:18.033Z,0.80
2018-06-21T23:19:04.600Z,0.90
2018-06-21T23:22:00.215Z,0.70
2018-06-21T23:24:29.653Z,0.90
2018-06-21T23:26:59.082Z,1.10
2018-06-21T23:29:28.446Z,0.60
2018-06-21T23:31:57.798Z,0.60
2018-06-21T23:34:27.262Z,1.00
2018-06-21T23:36:56.659Z,0.83
2018-06-21T23:39:25.711Z,0.60
2018-06-21T23:56:58.418Z,0.77
2018-06-21T23:59:29.888Z,0.63
